Time;durP1;ratioP1;P1;durP2;ratioP2;P2;SDS_P1;SDS_P2;PMS_P1;PMS_P2;Temp;Humidity;BMP_temperature;BMP_pressure;BME280_temperature;BME280_humidity;BME280_pressure;Samples;Min_cycle;Max_cycle;Signal;HPM_P1;HPM_P2
2024/02/15 00:00:16;;;;;;;0.50;0.50;;;;;;;;;;5021520;28;21125;-84
2024/02/15 00:02:44;;;;;;;0.40;0.30;;;;;;;;;;5028065;28;20446;-83
2024/02/15 00:05:10;;;;;;;0.40;0.37;;;;;;;;;;5021905;28;20478;-82
2024/02/15 00:07:37;;;;;;;0.30;0.30;;;;;;;;;;5022657;28;20561;-82
2024/02/15 00:10:05;;;;;;;0.30;0.20;;;;;;;;;;5019576;28;20490;-82
2024/02/15 00:12:32;;;;;;;0.30;0.30;;;;;;;;;;5020644;28;20453;-82
2024/02/15 00:14:59;;;;;;;0.33;0.33;;;;;;;;;;5021021;28;20470;-81
2024/02/15 00:17:25;;;;;;;0.30;0.27;;;;;;;;;;5026794;28;20493;-82
2024/02/15 00:19:52;;;;;;;0.40;0.40;;;;;;;;;;5019671;28;20459;-82
2024/02/15 00:22:18;;;;;;;0.43;0.43;;;;;;;;;;5022364;28;20478;-82
2024/02/15 00:24:45;;;;;;;0.30;0.30;;;;;;;;;;5009218;28;20490;-82
2024/02/15 00:27:13;;;;;;;0.80;0.80;;;;;;;;;;5021931;28;20482;-82
2024/02/15 00:29:40;;;;;;;0.30;0.30;;;;;;;;;;5022473;28;20522;-81
2024/02/15 00:32:06;;;;;;;0.30;0.30;;;;;;;;;;5020381;28;20489;-82
2024/02/15 00:34:33;;;;;;;0.30;0.30;;;;;;;;;;5023042;28;20558;-82
2024/02/15 00:36:59;;;;;;;0.70;0.70;;;;;;;;;;5018999;28;20490;-82
2024/02/15 00:39:26;;;;;;;0.30;0.30;;;;;;;;;;5026516;28;20450;-82
2024/02/15 00:41:52;;;;;;;0.40;0.30;;;;;;;;;;5024856;28;20449;-82
2024/02/15 00:44:20;;;;;;;0.70;0.70;;;;;;;;;;5023218;28;20963;-82
2024/02/15 00:46:47;;;;;;;0.30;0.30;;;;;;;;;;5021316;28;20458;-83
2024/02/15 00:49:14;;;;;;;0.33;0.33;;;;;;;;;;5026613;28;20469;-82
2024/02/15 00:51:40;;;;;;;49.20;18.77;;;;;;;;;;5022694;28;20462;-82
2024/02/15 00:54:06;;;;;;;0.30;0.30;;;;;;;;;;5019368;28;20496;-83
2024/02/15 00:56:33;;;;;;;0.60;0.60;;;;;;;;;;5014177;28;20481;-83
2024/02/15 00:59:00;;;;;;;0.30;0.30;;;;;;;;;;5023913;28;21208;-81
2024/02/15 01:01:28;;;;;;;0.73;0.73;;;;;;;;;;5023127;28;20458;-81
2024/02/15 01:03:54;;;;;;;0.30;0.30;;;;;;;;;;5027484;28;20458;-82
2024/02/15 01:06:22;;;;;;;0.40;0.30;;;;;;;;;;5015079;28;20555;-81
2024/02/15 01:08:48;;;;;;;0.30;0.20;;;;;;;;;;5025510;28;20453;-82
2024/02/15 01:11:14;;;;;;;0.30;0.30;;;;;;;;;;5024279;28;20545;-83
2024/02/15 01:13:41;;;;;;;0.30;0.27;;;;;;;;;;5019657;28;21041;-84
2024/02/15 01:16:08;;;;;;;0.50;0.50;;;;;;;;;;5029104;28;20477;-83
2024/02/15 01:18:35;;;;;;;0.30;0.30;;;;;;;;;;5018174;28;20458;-82
2024/02/15 01:21:02;;;;;;;2.57;2.47;;;;;;;;;;5017290;28;20515;-82
2024/02/15 01:23:28;;;;;;;0.30;0.30;;;;;;;;;;5026270;28;20462;-82
2024/02/15 01:25:55;;;;;;;0.30;0.27;;;;;;;;;;5021415;28;20495;-82
2024/02/15 01:28:21;;;;;;;0.97;0.97;;;;;;;;;;5021014;28;20491;-82
2024/02/15 01:30:48;;;;;;;0.30;0.30;;;;;;;;;;5018279;28;20493;-81
2024/02/15 01:33:14;;;;;;;0.33;0.33;;;;;;;;;;5018821;28;20473;-81
2024/02/15 01:35:42;;;;;;;3.50;2.97;;;;;;;;;;5028809;28;20564;-81
2024/02/15 01:38:08;;;;;;;0.30;0.30;;;;;;;;;;5020486;28;20557;-81
2024/02/15 01:40:35;;;;;;;0.40;0.40;;;;;;;;;;5029065;28;20526;-81
2024/02/15 01:43:01;;;;;;;0.40;0.30;;;;;;;;;;5024675;28;20482;-82
2024/02/15 01:45:27;;;;;;;0.40;0.30;;;;;;;;;;5024535;28;20617;-81
2024/02/15 01:47:54;;;;;;;1.90;1.80;;;;;;;;;;5024279;28;20449;-82
2024/02/15 01:50:22;;;;;;;0.30;0.30;;;;;;;;;;5031449;28;20507;-82
2024/02/15 01:52:50;;;;;;;0.30;0.30;;;;;;;;;;5029647;28;20463;-81
2024/02/15 01:55:18;;;;;;;0.33;0.30;;;;;;;;;;5021105;28;20517;-81
2024/02/15 01:57:45;;;;;;;0.30;0.30;;;;;;;;;;5026566;28;20529;-83
2024/02/15 02:00:13;;;;;;;0.30;0.20;;;;;;;;;;5027746;28;20820;-83
2024/02/15 02:02:40;;;;;;;0.40;0.30;;;;;;;;;;5026634;28;20491;-83
2024/02/15 02:05:06;;;;;;;0.30;0.30;;;;;;;;;;5022380;28;20589;-83
2024/02/15 02:07:33;;;;;;;0.60;0.60;;;;;;;;;;5019598;28;20550;-83
2024/02/15 02:10:01;;;;;;;0.30;0.30;;;;;;;;;;5028984;28;20488;-84
2024/02/15 02:12:28;;;;;;;0.30;0.30;;;;;;;;;;5022688;28;20513;-82
2024/02/15 02:14:54;;;;;;;0.40;0.40;;;;;;;;;;5016637;28;20450;-83
2024/02/15 02:17:21;;;;;;;0.30;0.20;;;;;;;;;;5029050;28;20574;-82
2024/02/15 02:19:49;;;;;;;0.30;0.30;;;;;;;;;;5024304;28;21007;-82
2024/02/15 02:22:17;;;;;;;0.30;0.30;;;;;;;;;;5027752;28;20457;-82
2024/02/15 02:24:47;;;;;;;0.40;0.30;;;;;;;;;;5021044;28;20466;-82
2024/02/15 02:27:15;;;;;;;0.40;0.33;;;;;;;;;;5025006;28;20551;-82
2024/02/15 02:29:45;;;;;;;1.67;1.57;;;;;;;;;;5034143;28;20541;-82
2024/02/15 02:32:12;;;;;;;0.30;0.30;;;;;;;;;;5028068;28;20451;-82
2024/02/15 02:34:38;;;;;;;0.30;0.30;;;;;;;;;;5025214;28;20463;-83
2024/02/15 02:37:07;;;;;;;0.77;0.77;;;;;;;;;;5026558;28;20517;-82
2024/02/15 02:39:34;;;;;;;0.40;0.40;;;;;;;;;;5019926;28;20514;-83
2024/02/15 02:42:00;;;;;;;0.30;0.30;;;;;;;;;;5025609;28;20565;-82
2024/02/15 02:44:28;;;;;;;0.40;0.30;;;;;;;;;;5022186;28;20468;-82
2024/02/15 02:46:54;;;;;;;0.30;0.30;;;;;;;;;;5025231;28;20514;-83
2024/02/15 02:49:20;;;;;;;0.30;0.30;;;;;;;;;;5020765;28;20515;-82
2024/02/15 02:51:47;;;;;;;1.63;1.17;;;;;;;;;;5034698;28;20457;-82
2024/02/15 02:54:15;;;;;;;0.30;0.30;;;;;;;;;;5025459;28;20450;-81
2024/02/15 02:56:43;;;;;;;0.30;0.20;;;;;;;;;;5020148;28;20458;-81
2024/02/15 02:59:09;;;;;;;0.30;0.30;;;;;;;;;;5022299;28;21106;-82
2024/02/15 03:01:39;;;;;;;0.30;0.30;;;;;;;;;;5024290;28;20474;-82
2024/02/15 03:04:06;;;;;;;0.30;0.30;;;;;;;;;;5022005;28;21039;-82
2024/02/15 03:06:32;;;;;;;1.90;1.17;;;;;;;;;;5021513;28;20494;-82
2024/02/15 03:08:58;;;;;;;0.30;0.30;;;;;;;;;;5016571;28;20504;-83
2024/02/15 03:11:25;;;;;;;1.93;1.83;;;;;;;;;;5020159;28;20490;-82
2024/02/15 03:13:51;;;;;;;0.30;0.30;;;;;;;;;;5016524;28;20994;-83
2024/02/15 03:16:18;;;;;;;0.30;0.30;;;;;;;;;;5021091;28;20545;-83
2024/02/15 03:18:45;;;;;;;0.30;0.30;;;;;;;;;;5023684;28;20459;-83
2024/02/15 03:21:12;;;;;;;0.40;0.40;;;;;;;;;;5028774;28;20475;-83
2024/02/15 03:23:38;;;;;;;0.37;0.30;;;;;;;;;;5016379;28;20489;-82
2024/02/15 03:26:05;;;;;;;0.37;0.30;;;;;;;;;;5023551;28;20513;-82
2024/02/15 03:28:32;;;;;;;0.30;0.30;;;;;;;;;;5014700;28;21229;-83
2024/02/15 03:31:00;;;;;;;1.00;1.00;;;;;;;;;;5022545;28;20493;-83
2024/02/15 03:33:32;;;;;;;1.07;1.07;;;;;;;;;;5029453;28;20446;-83
2024/02/15 03:36:00;;;;;;;0.40;0.40;;;;;;;;;;5030772;28;20458;-83
2024/02/15 03:38:29;;;;;;;0.40;0.37;;;;;;;;;;5024082;28;20462;-83
2024/02/15 03:40:55;;;;;;;0.30;0.20;;;;;;;;;;5022709;28;20494;-83
2024/02/15 03:43:23;;;;;;;0.40;0.30;;;;;;;;;;5019859;28;21104;-83
2024/02/15 03:45:49;;;;;;;0.40;0.40;;;;;;;;;;5018248;28;20486;-82
2024/02/15 03:48:16;;;;;;;0.40;0.40;;;;;;;;;;5011207;28;20455;-83
2024/02/15 03:50:43;;;;;;;0.30;0.30;;;;;;;;;;5026342;28;20461;-83
2024/02/15 03:53:11;;;;;;;0.40;0.40;;;;;;;;;;5020217;28;20534;-82
2024/02/15 03:55:38;;;;;;;0.60;0.60;;;;;;;;;;5020988;28;20449;-83
2024/02/15 03:58:04;;;;;;;0.40;0.30;;;;;;;;;;5019188;28;20476;-82
2024/02/15 04:00:31;;;;;;;1.17;1.17;;;;;;;;;;5011426;28;20466;-83
2024/02/15 04:02:57;;;;;;;0.40;0.30;;;;;;;;;;5022831;28;20533;-82
2024/02/15 04:05:23;;;;;;;0.30;0.30;;;;;;;;;;5022643;28;21244;-82
2024/02/15 04:07:50;;;;;;;0.30;0.30;;;;;;;;;;5024113;28;20450;-83
2024/02/15 04:10:18;;;;;;;0.90;0.90;;;;;;;;;;5020372;28;20621;-83
2024/02/15 04:12:45;;;;;;;0.40;0.40;;;;;;;;;;5021507;28;20458;-83
2024/02/15 04:15:13;;;;;;;0.33;0.33;;;;;;;;;;5023623;28;20489;-83
2024/02/15 04:17:40;;;;;;;0.60;0.60;;;;;;;;;;5019592;28;20459;-82
2024/02/15 04:20:07;;;;;;;2.37;2.23;;;;;;;;;;5031012;28;20453;-83
2024/02/15 04:22:36;;;;;;;0.30;0.30;;;;;;;;;;5020464;28;20457;-83
2024/02/15 04:25:03;;;;;;;0.30;0.30;;;;;;;;;;5019892;28;20457;-82
2024/02/15 04:27:30;;;;;;;0.40;0.40;;;;;;;;;;5012598;28;20489;-82
2024/02/15 04:29:57;;;;;;;0.40;0.37;;;;;;;;;;5012430;28;20521;-81
2024/02/15 04:32:23;;;;;;;0.40;0.40;;;;;;;;;;5008497;28;20562;-82
2024/02/15 04:34:49;;;;;;;0.40;0.30;;;;;;;;;;5005488;28;20506;-81
2024/02/15 04:37:16;;;;;;;0.40;0.30;;;;;;;;;;5017054;28;20585;-82
2024/02/15 04:39:43;;;;;;;0.40;0.30;;;;;;;;;;5013812;28;20439;-82
2024/02/15 04:42:11;;;;;;;0.40;0.30;;;;;;;;;;5024452;28;20538;-82
2024/02/15 04:44:39;;;;;;;0.40;0.40;;;;;;;;;;5019627;28;20458;-82
2024/02/15 04:47:05;;;;;;;0.30;0.30;;;;;;;;;;5024456;28;20546;-83
2024/02/15 04:49:32;;;;;;;0.37;0.30;;;;;;;;;;5026919;28;20510;-82
2024/02/15 04:51:58;;;;;;;0.40;0.40;;;;;;;;;;5030296;28;20485;-83
2024/02/15 04:54:26;;;;;;;0.43;0.40;;;;;;;;;;5022175;28;20482;-83
2024/02/15 04:56:54;;;;;;;0.40;0.33;;;;;;;;;;5017668;28;20480;-84
2024/02/15 04:59:24;;;;;;;0.40;0.40;;;;;;;;;;5029371;28;20459;-82
2024/02/15 05:01:52;;;;;;;1.70;1.60;;;;;;;;;;5022065;28;20466;-82
2024/02/15 05:04:18;;;;;;;0.40;0.40;;;;;;;;;;5013703;28;20594;-83
2024/02/15 05:06:45;;;;;;;0.40;0.40;;;;;;;;;;5018391;28;20499;-82
2024/02/15 05:09:12;;;;;;;0.40;0.40;;;;;;;;;;5021334;28;20450;-83
2024/02/15 05:11:41;;;;;;;0.40;0.30;;;;;;;;;;5018514;28;20462;-83
2024/02/15 05:14:07;;;;;;;10.77;3.23;;;;;;;;;;5023012;28;20474;-82
2024/02/15 05:16:33;;;;;;;0.40;0.30;;;;;;;;;;5020100;28;20573;-82
2024/02/15 05:19:02;;;;;;;0.30;0.30;;;;;;;;;;5019652;28;20507;-82
2024/02/15 05:21:30;;;;;;;0.30;0.30;;;;;;;;;;5022145;28;20464;-82
2024/02/15 05:23:57;;;;;;;0.50;0.50;;;;;;;;;;5018174;28;20459;-83
2024/02/15 05:26:23;;;;;;;0.30;0.30;;;;;;;;;;5018406;28;20559;-83
2024/02/15 05:28:50;;;;;;;0.37;0.37;;;;;;;;;;5023417;28;20459;-83
2024/02/15 05:31:19;;;;;;;0.40;0.40;;;;;;;;;;5026046;28;20512;-84
2024/02/15 05:33:47;;;;;;;0.50;0.50;;;;;;;;;;5013843;28;20457;-84
2024/02/15 05:36:15;;;;;;;0.40;0.40;;;;;;;;;;5020303;28;20458;-84
2024/02/15 05:38:45;;;;;;;0.40;0.40;;;;;;;;;;5025933;28;20529;-85
2024/02/15 05:41:11;;;;;;;0.40;0.40;;;;;;;;;;5018592;28;20458;-85
2024/02/15 05:43:38;;;;;;;0.80;0.80;;;;;;;;;;5013623;28;20478;-84
2024/02/15 05:46:06;;;;;;;0.73;0.73;;;;;;;;;;5018843;28;20533;-84
2024/02/15 05:48:34;;;;;;;0.30;0.30;;;;;;;;;;5021448;28;21301;-83
2024/02/15 05:51:01;;;;;;;0.40;0.40;;;;;;;;;;5025551;28;20890;-85
2024/02/15 05:53:29;;;;;;;0.40;0.40;;;;;;;;;;5023112;28;20482;-84
2024/02/15 05:55:55;;;;;;;0.40;0.40;;;;;;;;;;5021868;28;20490;-84
2024/02/15 05:58:21;;;;;;;0.53;0.53;;;;;;;;;;5018485;28;20510;-83
2024/02/15 06:00:49;;;;;;;0.70;0.70;;;;;;;;;;5022991;28;20488;-87
2024/02/15 06:03:16;;;;;;;0.40;0.40;;;;;;;;;;5026424;28;20458;-86
2024/02/15 06:05:42;;;;;;;0.95;0.95;;;;;;;;;;5024463;28;20453;-87
2024/02/15 06:08:09;;;;;;;0.40;0.40;;;;;;;;;;5023740;28;20530;-86
2024/02/15 06:10:36;;;;;;;1.23;1.23;;;;;;;;;;5021022;28;20522;-86
2024/02/15 06:13:03;;;;;;;0.50;0.50;;;;;;;;;;5028388;28;20486;-85
2024/02/15 06:15:29;;;;;;;0.40;0.40;;;;;;;;;;5009683;28;20519;-86
2024/02/15 06:17:57;;;;;;;0.93;0.93;;;;;;;;;;5020810;28;20477;-85
2024/02/15 06:20:24;;;;;;;0.43;0.43;;;;;;;;;;5021118;28;20473;-85
2024/02/15 06:22:52;;;;;;;0.40;0.40;;;;;;;;;;5023115;28;20459;-85
2024/02/15 06:25:20;;;;;;;0.40;0.40;;;;;;;;;;5033345;28;20445;-86
2024/02/15 06:27:50;;;;;;;0.40;0.40;;;;;;;;;;5018708;28;20524;-86
2024/02/15 06:41:13;;;;;;;0.40;0.40;;;;;;;;;;5013861;28;20437;-86
2024/02/15 06:43:41;;;;;;;0.53;0.53;;;;;;;;;;5020815;28;20486;-86
2024/02/15 06:46:07;;;;;;;1.07;1.07;;;;;;;;;;5019498;28;20544;-86
2024/02/15 06:48:34;;;;;;;0.40;0.40;;;;;;;;;;5019985;28;20446;-86
2024/02/15 06:51:00;;;;;;;0.40;0.40;;;;;;;;;;5018496;28;20458;-86
2024/02/15 06:53:26;;;;;;;0.40;0.40;;;;;;;;;;5018687;28;20523;-86
2024/02/15 06:55:53;;;;;;;0.43;0.43;;;;;;;;;;5012962;28;20477;-87
2024/02/15 06:58:20;;;;;;;0.50;0.50;;;;;;;;;;5017421;28;20526;-86
2024/02/15 07:00:50;;;;;;;0.60;0.60;;;;;;;;;;5015645;28;20466;-85
2024/02/15 07:03:17;;;;;;;0.70;0.70;;;;;;;;;;5021457;28;20463;-86
2024/02/15 07:05:43;;;;;;;0.50;0.50;;;;;;;;;;5020574;28;20454;-86
2024/02/15 07:08:10;;;;;;;0.40;0.40;;;;;;;;;;5020937;28;20494;-87
2024/02/15 07:10:38;;;;;;;0.43;0.43;;;;;;;;;;5024080;28;20450;-85
2024/02/15 07:13:05;;;;;;;0.40;0.40;;;;;;;;;;5023681;28;20522;-84
2024/02/15 07:15:32;;;;;;;0.50;0.50;;;;;;;;;;5020964;28;20524;-84
2024/02/15 07:18:01;;;;;;;0.50;0.50;;;;;;;;;;5022206;28;20447;-85
2024/02/15 07:20:27;;;;;;;0.87;0.87;;;;;;;;;;5019118;28;20519;-82
2024/02/15 07:22:54;;;;;;;0.50;0.50;;;;;;;;;;5022596;28;20454;-83
2024/02/15 07:25:20;;;;;;;0.50;0.50;;;;;;;;;;5022862;28;20442;-82
2024/02/15 07:27:46;;;;;;;0.60;0.60;;;;;;;;;;5019411;28;20554;-84
2024/02/15 07:30:14;;;;;;;0.50;0.50;;;;;;;;;;5019661;28;20510;-84
2024/02/15 07:32:41;;;;;;;0.50;0.50;;;;;;;;;;5014970;28;20463;-85
2024/02/15 07:35:09;;;;;;;0.60;0.60;;;;;;;;;;5019514;28;20510;-83
2024/02/15 07:37:36;;;;;;;0.60;0.60;;;;;;;;;;5011648;28;20470;-85
2024/02/15 07:40:03;;;;;;;0.73;0.73;;;;;;;;;;5018946;28;20457;-84
2024/02/15 07:42:30;;;;;;;0.70;0.70;;;;;;;;;;5008516;28;20463;-84
2024/02/15 07:44:56;;;;;;;0.80;0.80;;;;;;;;;;5016456;28;21261;-83
2024/02/15 07:47:24;;;;;;;0.60;0.60;;;;;;;;;;5017081;28;20482;-84
2024/02/15 07:49:50;;;;;;;0.80;0.80;;;;;;;;;;5015837;28;20486;-83
2024/02/15 07:52:18;;;;;;;1.27;1.27;;;;;;;;;;5018609;28;20471;-83
2024/02/15 07:54:45;;;;;;;0.80;0.80;;;;;;;;;;5016253;28;20531;-84
2024/02/15 07:57:11;;;;;;;0.80;0.80;;;;;;;;;;5012382;28;20873;-86
2024/02/15 07:59:39;;;;;;;0.80;0.80;;;;;;;;;;5018747;28;20450;-89
2024/02/15 08:02:05;;;;;;;1.77;1.67;;;;;;;;;;5007989;28;20467;-87
2024/02/15 08:04:34;;;;;;;0.80;0.80;;;;;;;;;;5011590;28;20493;-89
2024/02/15 08:07:00;;;;;;;0.90;0.90;;;;;;;;;;5016077;28;20483;-87
2024/02/15 08:09:28;;;;;;;1.77;1.50;;;;;;;;;;5015385;28;20482;-89
2024/02/15 08:11:55;;;;;;;0.80;0.80;;;;;;;;;;5014117;28;20526;-87
2024/02/15 08:14:22;;;;;;;1.10;1.10;;;;;;;;;;5017417;28;20989;-85
2024/02/15 08:16:48;;;;;;;1.10;1.10;;;;;;;;;;5014264;28;20479;-89
2024/02/15 08:19:15;;;;;;;1.03;1.03;;;;;;;;;;5018004;28;20454;-89
2024/02/15 08:21:42;;;;;;;0.90;0.90;;;;;;;;;;5012981;28;21008;-89
2024/02/15 08:24:09;;;;;;;1.30;1.30;;;;;;;;;;5019081;28;20462;-88
2024/02/15 08:26:38;;;;;;;1.23;1.23;;;;;;;;;;5019055;28;20458;-89
2024/02/15 08:29:05;;;;;;;1.10;1.10;;;;;;;;;;5019040;28;20498;-89
2024/02/15 08:31:32;;;;;;;1.07;1.07;;;;;;;;;;5018503;28;20561;-89
2024/02/15 08:34:00;;;;;;;1.10;1.10;;;;;;;;;;5010524;28;20555;-88
2024/02/15 08:36:26;;;;;;;1.77;1.67;;;;;;;;;;5015149;28;20458;-89
2024/02/15 08:38:53;;;;;;;1.03;1.03;;;;;;;;;;5015361;28;20494;-89
2024/02/15 08:41:20;;;;;;;0.80;0.80;;;;;;;;;;5013639;28;20462;-89
2024/02/15 08:43:49;;;;;;;0.90;0.90;;;;;;;;;;5018715;28;20494;-89
2024/02/15 08:46:15;;;;;;;0.73;0.73;;;;;;;;;;5017577;28;20922;-88
2024/02/15 08:48:43;;;;;;;0.77;0.77;;;;;;;;;;5014509;28;20589;-88
2024/02/15 08:51:09;;;;;;;0.70;0.70;;;;;;;;;;5021287;28;20485;-88
2024/02/15 08:53:37;;;;;;;0.90;0.90;;;;;;;;;;5023152;28;20485;-89
2024/02/15 08:56:03;;;;;;;0.80;0.80;;;;;;;;;;5017112;28;20464;-87
2024/02/15 08:58:30;;;;;;;0.60;0.60;;;;;;;;;;5019350;28;20521;-87
2024/02/15 09:00:58;;;;;;;0.70;0.70;;;;;;;;;;5021594;28;20466;-88
2024/02/15 09:03:24;;;;;;;0.70;0.70;;;;;;;;;;5017333;28;20462;-87
2024/02/15 09:05:51;;;;;;;0.80;0.80;;;;;;;;;;5011368;28;20465;-87
2024/02/15 09:08:20;;;;;;;0.60;0.60;;;;;;;;;;5022831;28;20553;-88
2024/02/15 09:10:47;;;;;;;0.80;0.80;;;;;;;;;;5019918;28;20463;-87
2024/02/15 09:13:13;;;;;;;2.30;2.20;;;;;;;;;;5022012;28;20522;-88
2024/02/15 09:15:41;;;;;;;0.77;0.77;;;;;;;;;;5020821;28;20570;-88
2024/02/15 09:18:10;;;;;;;0.70;0.70;;;;;;;;;;5022480;28;20454;-88
2024/02/15 09:20:38;;;;;;;0.60;0.60;;;;;;;;;;5018854;28;20455;-86
2024/02/15 09:23:09;;;;;;;0.60;0.60;;;;;;;;;;5022216;28;20462;-88
2024/02/15 09:25:36;;;;;;;0.60;0.60;;;;;;;;;;5021968;28;20459;-88
2024/02/15 09:28:03;;;;;;;0.57;0.57;;;;;;;;;;5019141;28;20491;-87
2024/02/15 09:30:31;;;;;;;0.60;0.60;;;;;;;;;;5020419;28;20883;-88
2024/02/15 09:32:57;;;;;;;0.73;0.73;;;;;;;;;;5021558;28;20462;-88
2024/02/15 09:35:25;;;;;;;0.50;0.50;;;;;;;;;;5020945;28;20450;-88
2024/02/15 09:37:55;;;;;;;0.60;0.60;;;;;;;;;;5021611;28;20458;-88
2024/02/15 09:40:24;;;;;;;0.80;0.80;;;;;;;;;;5014851;28;20467;-89
2024/02/15 09:42:51;;;;;;;0.70;0.70;;;;;;;;;;5021400;28;20486;-87
2024/02/15 09:45:18;;;;;;;0.70;0.70;;;;;;;;;;5021883;28;20447;-86
2024/02/15 09:47:45;;;;;;;0.57;0.57;;;;;;;;;;5017002;28;20557;-88
2024/02/15 09:50:13;;;;;;;0.63;0.63;;;;;;;;;;5012306;28;20486;-87
2024/02/15 09:52:41;;;;;;;0.50;0.50;;;;;;;;;;5015463;28;20454;-88
2024/02/15 09:55:13;;;;;;;0.60;0.60;;;;;;;;;;5020927;28;20482;-87
2024/02/15 09:57:39;;;;;;;0.43;0.43;;;;;;;;;;5011772;28;20514;-87
2024/02/15 10:00:07;;;;;;;0.50;0.50;;;;;;;;;;5013521;28;20467;-88
2024/02/15 10:02:34;;;;;;;0.50;0.50;;;;;;;;;;5019002;28;20477;-87
2024/02/15 10:05:02;;;;;;;0.60;0.60;;;;;;;;;;5021396;28;20459;-88
2024/02/15 10:07:28;;;;;;;0.40;0.40;;;;;;;;;;5021024;28;20530;-87
2024/02/15 10:09:56;;;;;;;1.23;1.23;;;;;;;;;;5020472;28;20477;-87
2024/02/15 10:12:22;;;;;;;0.50;0.50;;;;;;;;;;5014653;28;20483;-89
2024/02/15 10:14:50;;;;;;;0.40;0.37;;;;;;;;;;5015674;28;20470;-88
2024/02/15 10:17:18;;;;;;;0.43;0.43;;;;;;;;;;5020496;28;20695;-88
2024/02/15 10:19:46;;;;;;;0.40;0.40;;;;;;;;;;5015913;28;20483;-88
2024/02/15 10:22:14;;;;;;;0.40;0.40;;;;;;;;;;5012587;28;20468;-88
2024/02/15 10:24:41;;;;;;;0.50;0.50;;;;;;;;;;5020325;28;20497;-89
2024/02/15 10:27:10;;;;;;;0.50;0.50;;;;;;;;;;5016902;28;20524;-87
2024/02/15 10:29:36;;;;;;;0.40;0.40;;;;;;;;;;5022394;28;20447;-88
2024/02/15 10:32:03;;;;;;;0.60;0.60;;;;;;;;;;5025121;28;20501;-88
2024/02/15 10:34:30;;;;;;;0.50;0.50;;;;;;;;;;5013698;28;20519;-87
2024/02/15 10:37:11;;;;;;;0.50;0.50;;;;;;;;;;5014757;28;20454;-88
2024/02/15 10:39:37;;;;;;;0.87;0.87;;;;;;;;;;5014558;28;20470;-88
2024/02/15 10:42:04;;;;;;;0.40;0.40;;;;;;;;;;5019186;28;20479;-88
2024/02/15 10:44:33;;;;;;;0.40;0.40;;;;;;;;;;5020162;28;20490;-89
2024/02/15 10:47:06;;;;;;;0.40;0.40;;;;;;;;;;5017270;28;20463;-88
2024/02/15 10:49:32;;;;;;;0.50;0.50;;;;;;;;;;5020619;28;21255;-87
2024/02/15 10:52:03;;;;;;;0.40;0.40;;;;;;;;;;5020135;28;20446;-89
2024/02/15 10:54:41;;;;;;;0.40;0.40;;;;;;;;;;5020714;28;20466;-89
2024/02/15 10:57:09;;;;;;;0.50;0.50;;;;;;;;;;5020408;28;20482;-89
2024/02/15 10:59:40;;;;;;;0.40;0.40;;;;;;;;;;5014306;28;20486;-87
2024/02/15 11:02:12;;;;;;;0.40;0.40;;;;;;;;;;5019631;28;20490;-88
2024/02/15 11:04:39;;;;;;;0.40;0.30;;;;;;;;;;5016432;28;20498;-88
2024/02/15 11:07:06;;;;;;;1.13;1.13;;;;;;;;;;5015544;28;20518;-88
2024/02/15 11:09:33;;;;;;;0.50;0.50;;;;;;;;;;5019146;28;20494;-88
2024/02/15 11:12:00;;;;;;;0.60;0.60;;;;;;;;;;5020397;28;21104;-88
2024/02/15 11:14:28;;;;;;;0.80;0.80;;;;;;;;;;5014861;28;20446;-88
2024/02/15 11:16:57;;;;;;;2.10;2.00;;;;;;;;;;5019678;28;20518;-85
2024/02/15 11:19:47;;;;;;;0.40;0.40;;;;;;;;;;5018036;28;20459;-87
2024/02/15 11:22:15;;;;;;;0.47;0.47;;;;;;;;;;5017251;28;20485;-88
2024/02/15 11:24:48;;;;;;;0.43;0.43;;;;;;;;;;5013501;28;20457;-87
2024/02/15 11:27:25;;;;;;;0.40;0.40;;;;;;;;;;5020459;28;20465;-89
2024/02/15 11:29:52;;;;;;;0.43;0.43;;;;;;;;;;5016008;28;20535;-88
2024/02/15 11:32:39;;;;;;;0.50;0.50;;;;;;;;;;5017938;28;20522;-87
2024/02/15 11:35:10;;;;;;;0.60;0.60;;;;;;;;;;5018182;28;20483;-89
2024/02/15 11:37:58;;;;;;;0.40;0.40;;;;;;;;;;5015087;28;20470;-88
2024/02/15 11:40:26;;;;;;;0.57;0.57;;;;;;;;;;5011183;28;20485;-88
2024/02/15 11:42:54;;;;;;;0.60;0.60;;;;;;;;;;5010299;28;20967;-88
2024/02/15 11:45:20;;;;;;;0.60;0.60;;;;;;;;;;5013968;28;20855;-86
2024/02/15 11:47:51;;;;;;;0.50;0.50;;;;;;;;;;5018668;28;20597;-88
2024/02/15 11:50:20;;;;;;;0.60;0.60;;;;;;;;;;5018334;28;20461;-88
2024/02/15 11:52:48;;;;;;;1.60;1.50;;;;;;;;;;5015372;28;20466;-87
2024/02/15 11:55:15;;;;;;;0.60;0.60;;;;;;;;;;5015455;28;20449;-87
2024/02/15 11:57:53;;;;;;;0.83;0.83;;;;;;;;;;5018851;28;20494;-87
2024/02/15 12:19:44;;;;;;;1.17;1.13;;;;;;;;;;5015791;28;20616;-85
2024/02/15 12:22:12;;;;;;;0.50;0.50;;;;;;;;;;5021919;28;20522;-85
2024/02/15 12:24:38;;;;;;;0.60;0.60;;;;;;;;;;5015807;28;20459;-86
2024/02/15 12:27:05;;;;;;;0.73;0.73;;;;;;;;;;5011315;28;20530;-86
2024/02/15 12:29:32;;;;;;;0.50;0.50;;;;;;;;;;5008450;28;20559;-86
2024/02/15 12:31:59;;;;;;;0.50;0.50;;;;;;;;;;5016068;28;20524;-83
2024/02/15 12:34:26;;;;;;;0.60;0.60;;;;;;;;;;5018583;28;20528;-82
2024/02/15 12:37:05;;;;;;;0.60;0.60;;;;;;;;;;5020597;28;20459;-83
2024/02/15 12:39:33;;;;;;;0.70;0.70;;;;;;;;;;5006986;28;20948;-81
2024/02/15 12:41:59;;;;;;;0.60;0.60;;;;;;;;;;5019228;28;20538;-80
2024/02/15 12:44:27;;;;;;;0.53;0.53;;;;;;;;;;5017960;28;20577;-81
2024/02/15 12:46:55;;;;;;;0.60;0.60;;;;;;;;;;5020500;28;20463;-80
2024/02/15 12:49:29;;;;;;;0.60;0.60;;;;;;;;;;5020859;28;20509;-82
2024/02/15 12:52:15;;;;;;;0.50;0.50;;;;;;;;;;5021038;28;20461;-83
2024/02/15 12:54:44;;;;;;;0.60;0.60;;;;;;;;;;5020635;28;20478;-80
2024/02/15 12:57:12;;;;;;;0.60;0.60;;;;;;;;;;5019501;28;20454;-81
2024/02/15 12:59:39;;;;;;;0.60;0.60;;;;;;;;;;5020028;28;20473;-82
2024/02/15 13:02:05;;;;;;;0.50;0.50;;;;;;;;;;5020811;28;20462;-81
2024/02/15 13:04:32;;;;;;;0.60;0.60;;;;;;;;;;5019895;28;20530;-80
2024/02/15 13:06:58;;;;;;;0.80;0.80;;;;;;;;;;5020497;28;20458;-81
2024/02/15 13:09:28;;;;;;;0.70;0.70;;;;;;;;;;5020217;28;20573;-82
2024/02/15 13:11:55;;;;;;;1.40;1.30;;;;;;;;;;5019434;28;20478;-83
2024/02/15 13:14:22;;;;;;;0.80;0.80;;;;;;;;;;5014205;28;20791;-82
2024/02/15 13:16:48;;;;;;;1.00;1.00;;;;;;;;;;5016796;28;20921;-83
2024/02/15 13:19:15;;;;;;;1.07;1.07;;;;;;;;;;5018603;28;20463;-83
2024/02/15 13:21:42;;;;;;;1.07;1.07;;;;;;;;;;5016973;28;20458;-82
2024/02/15 13:24:11;;;;;;;0.90;0.90;;;;;;;;;;5018301;28;20520;-83
2024/02/15 13:26:37;;;;;;;1.10;1.10;;;;;;;;;;5018108;28;20458;-82
2024/02/15 13:29:05;;;;;;;0.90;0.90;;;;;;;;;;5020171;28;20816;-81
2024/02/15 13:31:32;;;;;;;0.70;0.70;;;;;;;;;;5017863;28;20514;-81
2024/02/15 13:33:58;;;;;;;1.20;1.20;;;;;;;;;;5017588;28;20490;-82
2024/02/15 13:36:26;;;;;;;1.17;1.17;;;;;;;;;;5022470;28;21351;-82
2024/02/15 13:38:52;;;;;;;1.30;1.30;;;;;;;;;;5023909;28;20466;-82
2024/02/15 13:41:18;;;;;;;1.30;1.30;;;;;;;;;;5021722;28;20490;-82
2024/02/15 13:43:45;;;;;;;1.20;1.20;;;;;;;;;;5021536;28;21005;-82
2024/02/15 13:46:13;;;;;;;1.20;1.20;;;;;;;;;;5012459;28;20482;-83
2024/02/15 13:48:39;;;;;;;1.20;1.20;;;;;;;;;;5019325;28;20486;-81
2024/02/15 13:51:08;;;;;;;1.03;1.03;;;;;;;;;;5021125;28;20523;-83
2024/02/15 13:53:35;;;;;;;1.20;1.20;;;;;;;;;;5026134;28;20492;-82
2024/02/15 13:56:02;;;;;;;1.23;1.23;;;;;;;;;;5033111;28;20465;-82
2024/02/15 13:58:28;;;;;;;1.10;1.10;;;;;;;;;;5038077;28;20507;-83
2024/02/15 14:00:57;;;;;;;0.83;0.83;;;;;;;;;;5023298;28;20454;-87
2024/02/15 14:03:25;;;;;;;0.90;0.90;;;;;;;;;;5016331;28;20467;-83
2024/02/15 14:05:51;;;;;;;0.93;0.93;;;;;;;;;;5011986;28;20501;-83
2024/02/15 14:08:20;;;;;;;0.80;0.80;;;;;;;;;;5024589;28;20454;-85
2024/02/15 14:10:46;;;;;;;0.77;0.77;;;;;;;;;;5026485;28;20525;-83
2024/02/15 14:13:16;;;;;;;0.80;0.80;;;;;;;;;;5026649;28;20569;-85
2024/02/15 14:15:43;;;;;;;0.70;0.70;;;;;;;;;;5014196;28;20490;-84
2024/02/15 14:18:13;;;;;;;0.80;0.80;;;;;;;;;;5023078;28;20462;-84
2024/02/15 14:20:42;;;;;;;0.60;0.60;;;;;;;;;;5021046;28;20455;-84
2024/02/15 14:23:13;;;;;;;0.90;0.90;;;;;;;;;;5020799;28;20943;-83
2024/02/15 14:25:40;;;;;;;1.10;1.10;;;;;;;;;;5028769;28;20441;-82
2024/02/15 14:28:07;;;;;;;1.87;1.77;;;;;;;;;;5032400;28;20553;-84
2024/02/15 14:33:18;;;;;;;0.90;0.90;;;;;;;;;;5022901;28;20457;-84
2024/02/15 14:35:47;;;;;;;1.23;1.23;;;;;;;;;;5028965;28;20467;-85
2024/02/15 14:38:15;;;;;;;1.63;1.63;;;;;;;;;;5023538;28;20459;-84
2024/02/15 14:40:42;;;;;;;1.50;1.50;;;;;;;;;;5022975;28;20491;-83
2024/02/15 14:43:12;;;;;;;1.50;1.50;;;;;;;;;;5027313;28;20996;-84
2024/02/15 14:45:40;;;;;;;1.60;1.60;;;;;;;;;;5022120;28;20455;-82
2024/02/15 14:48:08;;;;;;;1.70;1.70;;;;;;;;;;5034177;28;20461;-84
2024/02/15 14:50:34;;;;;;;1.40;1.40;;;;;;;;;;5024061;28;21031;-84
2024/02/15 14:53:02;;;;;;;1.60;1.60;;;;;;;;;;5021616;28;20538;-87
2024/02/15 14:55:30;;;;;;;1.90;1.90;;;;;;;;;;5021447;28;20455;-85
2024/02/15 14:57:57;;;;;;;1.87;1.83;;;;;;;;;;5029725;28;20458;-86
2024/02/15 15:00:26;;;;;;;1.47;1.47;;;;;;;;;;5025253;28;20458;-85
2024/02/15 15:02:56;;;;;;;1.80;1.70;;;;;;;;;;5023436;28;20475;-86
2024/02/15 15:13:37;;;;;;;2.00;1.90;;;;;;;;;;5007518;28;20448;-85
2024/02/15 15:16:04;;;;;;;2.00;1.90;;;;;;;;;;5032120;28;20528;-85
2024/02/15 15:18:31;;;;;;;1.73;1.70;;;;;;;;;;5035624;28;20455;-85
2024/02/15 15:20:58;;;;;;;1.60;1.60;;;;;;;;;;5028913;28;20447;-85
2024/02/15 15:23:25;;;;;;;1.67;1.67;;;;;;;;;;5015036;28;20447;-85
2024/02/15 15:25:52;;;;;;;1.67;1.67;;;;;;;;;;5023705;28;20444;-86